Time;durP1;ratioP1;P1;durP2;ratioP2;P2;SDS_P1;SDS_P2;PMS_P1;PMS_P2;Temp;Humidity;BMP_temperature;BMP_pressure;BME280_temperature;BME280_humidity;BME280_pressure;Samples;Min_cycle;Max_cycle;Signal;HPM_P1;HPM_P2
2023/10/09 00:01:46;;;;;;;13.23;3.08;;;;;;;18.49;56.70;93387.09;5022467;28;20444;-81
2023/10/09 00:04:13;;;;;;;11.40;2.88;;;;;;;18.47;57.00;93394.56;5021254;28;20034;-81
2023/10/09 00:07:23;;;;;;;20.23;3.05;;;;;;;18.41;57.37;93390.50;5040197;28;20049;-81
2023/10/09 00:09:50;;;;;;;14.40;2.45;;;;;;;18.34;57.37;93390.19;5037991;28;20030;-79
2023/10/09 00:12:22;;;;;;;14.63;2.53;;;;;;;18.27;57.87;93388.00;5023722;28;20034;-83
2023/10/09 00:15:11;;;;;;;18.42;2.70;;;;;;;18.26;56.88;93388.31;5025786;28;20065;-81
2023/10/09 00:17:37;;;;;;;12.38;2.67;;;;;;;18.22;56.90;93387.41;5023300;28;20149;-81
2023/10/09 00:20:17;;;;;;;11.60;2.70;;;;;;;18.16;57.57;93388.66;5022997;28;20029;-81
2023/10/09 00:23:41;;;;;;;17.85;3.13;;;;;;;18.12;58.01;93387.69;5025897;28;20080;-81
2023/10/09 00:26:16;;;;;;;11.82;3.03;;;;;;;18.09;58.11;93389.09;5008798;28;20053;-82
2023/10/09 00:29:34;;;;;;;10.70;2.55;;;;;;;18.01;58.22;93381.91;5011754;28;20052;-81
2023/10/09 00:32:13;;;;;;;21.88;2.83;;;;;;;18.00;58.49;93383.78;5010316;28;20037;-80
2023/10/09 00:34:39;;;;;;;15.45;2.63;;;;;;;17.96;59.14;93376.78;5006446;28;20057;-80
2023/10/09 00:37:34;;;;;;;14.98;2.75;;;;;;;17.91;59.91;93380.34;4989740;28;20120;-80
2023/10/09 00:39:59;;;;;;;13.73;3.10;;;;;;;17.85;61.19;93377.06;5021684;28;20069;-80
2023/10/09 00:42:29;;;;;;;11.82;2.42;;;;;;;17.82;60.97;93379.56;5009725;28;20033;-80
2023/10/09 00:45:24;;;;;;;12.15;2.60;;;;;;;17.81;61.56;93375.31;5017317;28;20049;-81
2023/10/09 00:47:51;;;;;;;13.13;2.65;;;;;;;17.76;62.40;93378.88;4990039;28;20038;-81
2023/10/09 00:53:03;;;;;;;17.98;3.08;;;;;;;17.73;62.76;93376.09;5017721;28;20080;-79
2023/10/09 00:58:34;;;;;;;11.52;2.60;;;;;;;17.65;63.77;93370.47;5020084;28;20045;-80
2023/10/09 01:01:04;;;;;;;12.67;2.70;;;;;;;17.62;63.16;93365.00;5017815;28;20051;-80
2023/10/09 01:03:59;;;;;;;12.15;2.50;;;;;;;17.63;62.80;93367.34;5024258;28;20049;-80
2023/10/09 01:06:28;;;;;;;11.45;2.67;;;;;;;17.63;62.64;93367.34;5037752;28;20022;-80
2023/10/09 01:09:08;;;;;;;14.63;3.10;;;;;;;17.65;63.28;93372.31;5023956;28;20113;-80
2023/10/09 01:12:02;;;;;;;10.27;2.72;;;;;;;17.64;60.41;93353.00;5019907;28;20514;-82
2023/10/09 01:14:35;;;;;;;11.02;2.90;;;;;;;17.68;60.63;93363.78;5021115;28;20042;-81
2023/10/09 01:17:08;;;;;;;10.27;3.00;;;;;;;17.68;60.76;93361.91;5016991;28;20052;-79
2023/10/09 01:19:43;;;;;;;;;;;;;;;17.67;60.77;93363.00;5021703;28;20042;-80
2023/10/09 01:22:12;;;;;;;14.60;2.58;;;;;;;17.65;59.91;93357.25;5020501;28;19941;-81
2023/10/09 01:24:39;;;;;;;15.15;2.80;;;;;;;17.59;60.38;93355.81;5032492;28;20068;-82
2023/10/09 01:27:12;;;;;;;16.17;2.42;;;;;;;17.59;60.23;93360.34;5020041;28;20057;-80
2023/10/09 01:29:41;;;;;;;11.52;2.97;;;;;;;17.55;61.16;93357.50;5023462;28;20033;-81
2023/10/09 01:32:26;;;;;;;8.48;2.80;;;;;;;17.51;62.01;93353.91;5025073;28;20795;-80
2023/10/09 01:34:54;;;;;;;12.52;2.53;;;;;;;17.50;62.08;93347.06;5024191;28;20076;-82
2023/10/09 01:37:29;;;;;;;9.38;2.33;;;;;;;17.46;62.29;93352.19;5028720;28;20512;-81
2023/10/09 01:40:24;;;;;;;12.63;2.60;;;;;;;17.47;60.32;93343.19;5025762;28;20061;-81
2023/10/09 01:43:23;;;;;;;9.70;3.20;;;;;;;17.48;60.37;93343.97;5024752;28;20088;-80
2023/10/09 01:45:51;;;;;;;16.58;3.80;;;;;;;17.50;60.48;93341.00;5016058;28;20033;-80
2023/10/09 01:48:23;;;;;;;13.68;3.20;;;;;;;17.48;60.97;93336.00;5023243;28;20026;-78
2023/10/09 01:51:17;;;;;;;8.82;2.67;;;;;;;17.44;61.59;93343.78;5023863;28;20092;-80
2023/10/09 01:53:56;;;;;;;15.63;3.42;;;;;;;17.42;61.08;93340.66;5021178;28;20022;-79
2023/10/09 01:56:39;;;;;;;11.77;2.53;;;;;;;17.44;60.60;93345.66;5021812;28;20077;-81
2023/10/09 01:59:09;;;;;;;14.88;2.85;;;;;;;17.37;60.31;93329.44;5035931;28;20046;-79
2023/10/09 02:01:41;;;;;;;12.98;2.38;;;;;;;17.41;58.75;93333.81;5021186;28;20046;-81
2023/10/09 02:04:13;;;;;;;14.95;3.03;;;;;;;17.52;59.15;93334.31;5022160;28;20124;-79
2023/10/09 02:07:13;;;;;;;15.25;2.63;;;;;;;17.60;58.95;93330.13;5018406;28;20037;-80
2023/10/09 02:09:46;;;;;;;8.85;3.03;;;;;;;17.72;59.87;93337.44;5004065;28;20026;-80
2023/10/09 02:12:11;;;;;;;14.00;2.72;;;;;;;17.62;60.98;93334.00;5017105;28;20066;-80
2023/10/09 02:15:06;;;;;;;14.02;3.08;;;;;;;17.61;59.99;93339.63;5005077;28;20038;-80
2023/10/09 02:18:39;;;;;;;19.17;3.33;;;;;;;17.54;60.42;93334.00;5017571;28;20081;-82
2023/10/09 02:23:46;;;;;;;10.95;2.63;;;;;;;17.38;61.17;93338.94;5024832;28;20022;-81
2023/10/09 02:28:52;;;;;;;11.07;2.60;;;;;;;17.34;61.44;93337.97;5024088;28;20034;-81
2023/10/09 02:31:40;;;;;;;12.77;2.60;;;;;;;17.33;60.70;93342.50;5021592;28;20046;-80
2023/10/09 02:34:29;;;;;;;14.25;2.92;;;;;;;17.30;60.71;93337.06;5022287;28;20041;-82
2023/10/09 02:36:57;;;;;;;12.32;2.67;;;;;;;17.28;61.75;93340.78;5038180;28;20084;-81
2023/10/09 02:39:36;;;;;;;18.38;2.70;;;;;;;17.24;61.54;93339.81;5019683;28;20477;-82
2023/10/09 02:42:08;;;;;;;16.55;2.80;;;;;;;17.28;59.93;93340.78;5020755;28;20057;-82
2023/10/09 02:44:39;;;;;;;;;;;;;;;17.28;59.63;93338.13;5023038;28;20065;-83
2023/10/09 02:47:24;;;;;;;14.05;2.40;;;;;;;17.40;57.57;93334.88;5026498;28;20012;-81
2023/10/09 02:49:51;;;;;;;14.95;2.85;;;;;;;17.46;57.26;93335.53;5020439;28;20067;-82
2023/10/09 02:52:19;;;;;;;10.90;2.55;;;;;;;17.53;57.61;93330.56;5041987;28;20026;-80
2023/10/09 02:54:59;;;;;;;18.98;3.50;;;;;;;17.59;57.09;93336.50;5041060;28;20031;-81
2023/10/09 02:57:36;;;;;;;16.00;2.90;;;;;;;17.58;57.29;93332.28;5043820;28;20042;-81
2023/10/09 03:00:44;;;;;;;12.13;2.60;;;;;;;17.52;58.03;93334.31;5026935;28;20053;-79
2023/10/09 03:03:09;;;;;;;13.32;2.55;;;;;;;17.49;58.30;93329.63;5013041;28;20121;-81
2023/10/09 03:05:38;;;;;;;12.85;2.60;;;;;;;17.50;58.39;93333.84;5028945;28;20444;-80
2023/10/09 03:08:12;;;;;;;13.60;2.35;;;;;;;17.47;60.67;93331.78;5029106;28;20038;-81
2023/10/09 03:10:38;;;;;;;12.48;2.78;;;;;;;17.40;60.59;93336.75;5026140;28;20026;-81
2023/10/09 03:13:05;;;;;;;14.70;2.97;;;;;;;17.31;60.49;93322.72;5024585;28;20457;-80
2023/10/09 03:15:35;;;;;;;13.93;3.13;;;;;;;17.29;59.81;93333.63;5027871;28;20109;-81
2023/10/09 03:18:07;;;;;;;14.40;3.45;;;;;;;17.25;58.84;93330.81;5030240;28;20041;-79
2023/10/09 03:20:33;;;;;;;18.08;2.88;;;;;;;17.26;58.92;93332.38;5008211;28;20115;-82
2023/10/09 03:23:01;;;;;;;14.13;2.47;;;;;;;17.25;59.51;93335.34;5009033;28;20026;-80
2023/10/09 03:25:28;;;;;;;9.63;2.33;;;;;;;17.23;59.51;93335.63;5011611;28;20073;-80
2023/10/09 03:27:56;;;;;;;10.35;2.50;;;;;;;17.19;59.91;93331.25;5028671;28;20034;-80
2023/10/09 03:30:34;;;;;;;10.50;2.60;;;;;;;17.20;59.94;93338.09;5030252;28;20300;-81
2023/10/09 03:33:02;;;;;;;13.57;2.50;;;;;;;17.19;59.92;93341.84;5029763;28;20076;-80
2023/10/09 03:35:31;;;;;;;14.75;2.65;;;;;;;17.13;60.44;93327.97;5008407;28;20033;-81
2023/10/09 03:38:09;;;;;;;11.43;2.45;;;;;;;17.13;61.10;93338.53;5022583;28;20045;-81
2023/10/09 03:40:38;;;;;;;9.35;2.47;;;;;;;17.10;61.50;93349.75;5025644;28;20084;-80
2023/10/09 03:43:04;;;;;;;9.05;2.28;;;;;;;17.06;61.01;93346.91;5016046;28;20064;-80
2023/10/09 03:45:53;;;;;;;16.55;2.80;;;;;;;17.04;60.41;93330.59;5020607;28;20445;-82
2023/10/09 03:48:26;;;;;;;13.15;2.67;;;;;;;17.08;60.25;93341.34;5026089;28;20113;-81
2023/10/09 03:51:15;;;;;;;9.35;2.90;;;;;;;17.07;60.26;93329.19;5042235;28;20043;-82
2023/10/09 03:53:40;;;;;;;11.55;2.47;;;;;;;17.07;59.95;93339.78;5041581;28;20101;-81
2023/10/09 03:56:13;;;;;;;13.80;2.72;;;;;;;17.03;59.85;93336.19;5027107;28;20045;-83
2023/10/09 03:58:42;;;;;;;12.40;2.50;;;;;;;17.01;59.96;93333.84;5026751;28;20100;-81
2023/10/09 04:01:46;;;;;;;15.43;2.70;;;;;;;16.97;61.49;93338.16;5027580;28;20034;-81
2023/10/09 04:04:07;;;;;;;14.43;2.85;;;;;;;16.94;60.97;93335.38;5003647;28;20064;-83
2023/10/09 04:06:33;;;;;;;15.13;2.80;;;;;;;16.90;61.49;93334.41;4994447;28;20068;-80
2023/10/09 04:12:34;;;;;;;11.50;2.47;;;;;;;16.78;61.78;93330.44;4999774;28;20586;-81
2023/10/09 04:14:57;;;;;;;15.30;2.72;;;;;;;16.77;62.18;93326.22;5001485;28;20062;-81
2023/10/09 04:25:41;;;;;;;16.33;2.80;;;;;;;16.66;63.37;93324.91;4977408;28;20161;-83
2023/10/09 04:28:33;;;;;;;12.82;3.28;;;;;;;16.62;63.67;93324.00;4966112;28;20035;-82
2023/10/09 04:30:55;;;;;;;14.80;3.00;;;;;;;16.52;64.86;93316.31;5002922;28;20093;-80
2023/10/09 04:33:53;;;;;;;10.85;2.78;;;;;;;16.48;65.07;93323.25;5007117;28;20492;-80
2023/10/09 04:41:51;;;;;;;11.15;2.97;;;;;;;16.35;64.02;93312.47;5009475;28;20053;-83
2023/10/09 04:44:22;;;;;;;14.35;2.72;;;;;;;16.41;64.38;93319.22;4999543;28;20041;-82
2023/10/09 04:49:49;;;;;;;15.55;3.25;;;;;;;16.38;64.32;93319.78;5004523;28;20038;-82
2023/10/09 04:58:24;;;;;;;17.58;2.55;;;;;;;16.29;65.36;93318.97;5007688;28;20057;-85
2023/10/09 05:02:56;;;;;;;15.45;2.72;;;;;;;16.18;65.83;93310.50;5003822;28;20042;-82
2023/10/09 05:08:49;;;;;;;18.63;2.72;;;;;;;16.19;66.50;93317.34;5023977;28;20040;-83
2023/10/09 05:11:53;;;;;;;12.63;3.00;;;;;;;16.16;66.80;93322.44;5002894;28;20048;-83
2023/10/09 05:14:38;;;;;;;12.77;2.53;;;;;;;16.09;67.73;93311.50;5003594;28;20034;-84
2023/10/09 05:17:09;;;;;;;13.50;2.70;;;;;;;16.10;68.58;93321.00;5013804;28;20046;-80
2023/10/09 05:19:54;;;;;;;13.85;3.53;;;;;;;16.06;68.92;93315.53;5010796;28;20072;-80
2023/10/09 05:22:36;;;;;;;12.10;3.22;;;;;;;16.05;69.02;93321.13;5014351;28;20473;-81
2023/10/09 05:25:02;;;;;;;19.23;3.47;;;;;;;15.99;69.19;93307.25;5018055;28;20556;-80
2023/10/09 05:27:50;;;;;;;12.80;2.40;;;;;;;16.05;69.02;93315.84;5019083;28;20389;-80
2023/10/09 05:30:35;;;;;;;14.90;2.80;;;;;;;16.06;69.21;93317.41;5025760;28;20124;-79
2023/10/09 05:36:05;;;;;;;13.82;2.90;;;;;;;16.09;69.56;93320.22;5021310;28;20126;-80
2023/10/09 05:38:59;;;;;;;13.57;2.60;;;;;;;16.09;70.21;93325.50;5020033;28;20375;-80
2023/10/09 05:41:47;;;;;;;12.10;2.50;;;;;;;16.09;70.06;93328.13;5006069;28;20040;-82
2023/10/09 06:04:18;;;;;;;15.10;2.67;;;;;;;17.72;65.97;93332.97;5008918;28;20121;-79
2023/10/09 06:06:45;;;;;;;10.45;2.72;;;;;;;18.09;64.10;93325.53;5027286;28;20042;-81
2023/10/09 06:19:26;;;;;;;15.35;3.55;;;;;;;20.24;56.65;93330.59;5018823;28;20045;-80
2023/10/09 06:29:36;;;;;;;23.45;3.33;;;;;;;22.00;51.26;93334.44;5023448;28;20042;-82
2023/10/09 06:38:10;;;;;;;12.18;2.50;;;;;;;23.53;47.48;93342.28;5016861;28;20094;-80
2023/10/09 06:43:52;;;;;;;16.13;3.40;;;;;;;24.53;43.01;93333.00;5024646;28;20025;-80
2023/10/09 06:48:56;;;;;;;15.95;2.95;;;;;;;25.40;42.23;93338.78;5022380;28;20536;-82
2023/10/09 06:59:15;;;;;;;14.13;3.00;;;;;;;26.93;40.20;93341.19;5031671;28;20043;-82
2023/10/09 07:01:44;;;;;;;15.38;3.00;;;;;;;27.17;39.27;93335.28;5017800;28;20053;-82
2023/10/09 07:04:18;;;;;;;14.23;2.90;;;;;;;27.70;37.76;93333.44;5022191;28;20037;-82
2023/10/09 07:06:48;;;;;;;12.10;3.42;;;;;;;28.26;37.37;93343.03;5011310;28;20036;-83
2023/10/09 07:16:58;;;;;;;17.27;4.03;;;;;;;29.08;37.28;93337.22;5018706;28;20111;-83
2023/10/09 07:22:03;;;;;;;16.20;3.38;;;;;;;28.69;39.34;93342.47;5026769;28;20121;-83
2023/10/09 07:24:43;;;;;;;15.10;3.58;;;;;;;28.13;40.67;93341.81;5025638;28;20077;-82
2023/10/09 07:27:12;;;;;;;13.98;3.40;;;;;;;28.00;40.98;93344.03;5033089;28;20037;-81
2023/10/09 07:29:47;;;;;;;11.60;3.28;;;;;;;28.03;39.70;93344.06;5025161;28;20084;-81
2023/10/09 07:32:20;;;;;;;15.25;3.65;;;;;;;27.92;40.51;93340.53;5040722;28;20048;-81
2023/10/09 07:34:52;;;;;;;18.05;3.40;;;;;;;27.60;40.89;93341.03;5016713;28;20046;-81
2023/10/09 07:37:22;;;;;;;13.82;3.15;;;;;;;27.27;41.25;93350.00;5010021;28;20034;-80
2023/10/09 07:40:06;;;;;;;12.50;2.67;;;;;;;27.25;42.07;93340.78;5026516;28;20041;-82
2023/10/09 07:48:05;;;;;;;12.70;3.13;;;;;;;27.39;41.37;93340.88;5023589;28;20041;-82
2023/10/09 07:50:40;;;;;;;15.20;3.35;;;;;;;27.54;41.79;93341.78;5020760;28;20045;-82
2023/10/09 07:53:17;;;;;;;14.35;3.38;;;;;;;27.35;41.40;93345.44;5013986;28;20434;-82
2023/10/09 07:55:54;;;;;;;17.35;3.83;;;;;;;27.53;46.39;93346.38;5037543;28;20405;-82
2023/10/09 07:58:27;;;;;;;13.98;2.95;;;;;;;27.03;49.11;93343.22;5023360;28;20038;-82
2023/10/09 08:01:15;;;;;;;13.63;3.28;;;;;;;26.80;48.11;93343.38;5011565;28;20101;-81
2023/10/09 08:03:45;;;;;;;9.68;3.03;;;;;;;27.38;49.93;93344.69;5016254;28;20038;-82
2023/10/09 08:14:20;;;;;;;16.63;3.38;;;;;;;27.73;43.45;93338.06;5007820;28;20077;-81
2023/10/09 08:16:47;;;;;;;24.40;4.35;;;;;;;27.57;46.08;93339.09;5031076;28;20054;-82
2023/10/09 08:24:41;;;;;;;12.10;2.95;;;;;;;26.33;49.90;93336.66;5021553;28;20041;-82
2023/10/09 08:30:12;;;;;;;12.35;3.20;;;;;;;26.08;49.59;93333.66;5021961;28;20042;-82
2023/10/09 08:32:42;;;;;;;11.45;3.15;;;;;;;26.28;50.22;93328.94;5014831;28;20050;-82
2023/10/09 08:35:26;;;;;;;15.13;3.65;;;;;;;25.92;52.41;93337.28;5011858;28;20030;-81
2023/10/09 08:37:52;;;;;;;15.45;3.65;;;;;;;25.66;52.32;93331.88;5013099;28;20090;-81
2023/10/09 08:40:21;;;;;;;14.57;2.83;;;;;;;25.34;53.40;93330.25;5012802;28;20046;-81
2023/10/09 08:42:57;;;;;;;16.33;3.20;;;;;;;25.29;53.79;93333.22;5010417;28;20411;-80
2023/10/09 08:45:27;;;;;;;13.07;3.33;;;;;;;25.34;53.23;93326.78;5016416;28;20034;-82
2023/10/09 08:48:01;;;;;;;14.90;2.90;;;;;;;25.27;53.35;93318.66;5019345;28;20049;-80
2023/10/09 08:50:28;;;;;;;14.80;3.00;;;;;;;25.12;55.24;93325.63;5030699;28;20046;-81
2023/10/09 08:52:55;;;;;;;14.48;3.17;;;;;;;25.06;56.49;93327.84;5002394;28;20514;-81
2023/10/09 08:55:20;;;;;;;9.05;2.80;;;;;;;25.22;55.42;93324.28;5014150;28;20034;-81
2023/10/09 08:57:46;;;;;;;12.73;2.88;;;;;;;25.42;55.10;93327.66;5017919;28;20493;-81
2023/10/09 09:00:33;;;;;;;15.73;3.38;;;;;;;25.52;54.40;93325.16;5003603;28;20073;-80
2023/10/09 09:03:02;;;;;;;13.23;3.42;;;;;;;25.92;54.04;93323.88;5021088;28;20045;-80
2023/10/09 09:05:28;;;;;;;8.80;2.95;;;;;;;26.13;54.00;93319.91;5012936;28;20453;-81
2023/10/09 09:07:59;;;;;;;12.15;3.00;;;;;;;25.87;53.39;93321.50;5010044;28;20049;-80
2023/10/09 09:10:35;;;;;;;12.45;2.97;;;;;;;25.39;54.16;93321.13;5012902;28;20076;-80
2023/10/09 09:13:03;;;;;;;15.98;3.42;;;;;;;25.56;53.61;93322.56;5013066;28;20045;-81
2023/10/09 09:15:32;;;;;;;13.02;2.92;;;;;;;25.99;52.13;93331.25;5005537;28;20061;-80
2023/10/09 09:18:09;;;;;;;16.98;2.97;;;;;;;26.11;52.51;93319.50;5009070;28;20464;-80
2023/10/09 09:20:39;;;;;;;15.75;3.33;;;;;;;26.72;51.61;93315.66;5024958;28;20061;-82
2023/10/09 09:23:09;;;;;;;12.98;2.85;;;;;;;27.31;51.06;93320.44;5008684;28;20057;-82
2023/10/09 09:25:47;;;;;;;20.88;4.07;;;;;;;27.19;50.30;93313.41;5031316;28;20042;-80
2023/10/09 09:28:19;;;;;;;12.77;2.97;;;;;;;27.45;50.11;93307.16;5005337;28;20065;-80
2023/10/09 09:30:50;;;;;;;;;;;;;;;27.46;48.89;93310.59;5011489;28;20061;-80
2023/10/09 09:33:27;;;;;;;16.40;3.60;;;;;;;27.13;50.11;93307.63;5021172;28;19945;-80
2023/10/09 09:36:04;;;;;;;19.00;3.83;;;;;;;27.02;49.93;93309.44;5013648;28;20029;-81
2023/10/09 09:38:50;;;;;;;11.63;2.97;;;;;;;27.05;52.26;93297.94;5027685;28;20049;-81
2023/10/09 09:41:24;;;;;;;14.07;3.45;;;;;;;27.02;50.63;93304.06;5014959;28;20038;-82
2023/10/09 09:44:04;;;;;;;15.38;3.28;;;;;;;27.10;50.43;93300.28;5011301;28;20470;-81
2023/10/09 09:46:34;;;;;;;16.02;2.83;;;;;;;27.55;52.75;93301.06;5012211;28;20049;-81
2023/10/09 09:49:01;;;;;;;12.80;2.75;;;;;;;27.43;50.09;93301.38;5011481;28;20093;-82
2023/10/09 09:51:30;;;;;;;12.85;2.80;;;;;;;27.34;50.40;93299.00;5026207;28;20049;-81
2023/10/09 09:53:57;;;;;;;20.13;3.60;;;;;;;27.39;48.99;93300.56;5008176;28;20084;-81
2023/10/09 09:56:25;;;;;;;27.73;3.55;;;;;;;26.93;50.43;93295.50;5005313;28;20062;-80
2023/10/09 09:58:56;;;;;;;16.48;3.30;;;;;;;27.11;53.32;93293.00;5011402;28;20379;-81
2023/10/09 10:01:29;;;;;;;12.40;3.25;;;;;;;27.13;52.94;93296.88;5009740;28;20045;-81
2023/10/09 10:03:59;;;;;;;17.48;3.33;;;;;;;27.25;50.16;93284.34;5032033;28;20061;-81
2023/10/09 10:06:28;;;;;;;16.63;3.10;;;;;;;27.02;52.10;93289.84;5010394;28;20096;-81
2023/10/09 10:08:54;;;;;;;20.30;3.03;;;;;;;27.07;53.27;93289.53;5026513;28;20041;-79
2023/10/09 10:11:52;;;;;;;11.23;3.05;;;;;;;27.27;52.81;93285.50;5019076;28;20041;-82
2023/10/09 10:14:31;;;;;;;13.27;3.85;;;;;;;26.96;55.04;93284.06;5011420;28;20034;-81
2023/10/09 10:17:27;;;;;;;16.65;3.58;;;;;;;26.97;55.84;93278.28;5007178;28;20069;-81
2023/10/09 10:19:59;;;;;;;13.48;2.95;;;;;;;27.24;54.49;93282.78;5014223;28;20037;-82
2023/10/09 10:22:27;;;;;;;11.40;2.90;;;;;;;27.06;54.48;93280.66;5013944;28;20462;-79
2023/10/09 10:24:54;;;;;;;16.60;3.20;;;;;;;26.84;53.91;93277.03;5025373;28;20647;-81
2023/10/09 10:27:29;;;;;;;15.38;3.67;;;;;;;27.25;54.70;93273.59;5034701;28;20034;-81
2023/10/09 10:30:13;;;;;;;14.80;3.17;;;;;;;27.91;53.54;93273.66;5017643;28;20046;-81
2023/10/09 10:33:12;;;;;;;16.58;3.20;;;;;;;27.82;52.70;93276.66;5025460;28;20044;-81
2023/10/09 10:35:56;;;;;;;16.17;3.00;;;;;;;27.62;51.94;93268.84;5013608;28;20026;-80
2023/10/09 10:38:33;;;;;;;14.55;3.75;;;;;;;28.08;53.86;93269.50;5021273;28;20042;-80
2023/10/09 10:41:22;;;;;;;10.45;2.80;;;;;;;28.68;52.28;93260.88;5017326;28;20382;-80
2023/10/09 10:43:54;;;;;;;14.65;3.08;;;;;;;27.81;51.43;93261.66;5019415;28;20069;-81
2023/10/09 10:46:37;;;;;;;18.23;3.33;;;;;;;27.33;53.31;93267.09;5020466;28;20674;-80
2023/10/09 10:52:18;;;;;;;17.60;3.10;;;;;;;28.40;47.35;93256.94;4976246;28;20125;-79
2023/10/09 10:57:28;;;;;;;16.77;3.50;;;;;;;27.62;52.20;93252.69;5007458;28;20038;-80
2023/10/09 11:00:05;;;;;;;18.27;3.05;;;;;;;28.08;42.97;93250.66;5029572;28;20049;-80
2023/10/09 11:02:31;;;;;;;12.15;3.08;;;;;;;28.67;38.91;93242.44;5012272;28;20038;-80
2023/10/09 11:05:14;;;;;;;10.85;2.92;;;;;;;28.21;48.58;93249.19;5007541;28;20033;-80
2023/10/09 11:07:40;;;;;;;12.80;3.00;;;;;;;27.90;50.17;93240.59;5012306;28;20097;-80
2023/10/09 11:12:41;;;;;;;16.25;3.15;;;;;;;28.43;40.06;93248.09;5020733;28;20077;-80
2023/10/09 11:18:05;;;;;;;11.98;2.95;;;;;;;28.44;48.07;93230.81;5028452;28;20113;-80
2023/10/09 11:20:33;;;;;;;14.77;3.15;;;;;;;27.74;48.61;93230.13;5007681;28;20030;-80
2023/10/09 11:25:53;;;;;;;14.77;3.50;;;;;;;27.93;48.16;93215.63;5018157;28;20030;-80
2023/10/09 11:28:29;;;;;;;15.95;4.05;;;;;;;27.83;49.15;93210.94;5012221;28;20044;-80
2023/10/09 11:31:06;;;;;;;15.07;2.97;;;;;;;27.50;47.57;93215.38;5007268;28;20101;-79
2023/10/09 11:33:52;;;;;;;16.02;3.47;;;;;;;27.50;48.84;93215.38;5007079;28;20038;-81
2023/10/09 11:36:32;;;;;;;11.85;2.92;;;;;;;27.65;48.37;93204.69;5020539;28;20080;-80
2023/10/09 11:39:20;;;;;;;14.05;2.88;;;;;;;27.61;47.12;93208.16;5016924;28;20045;-81
2023/10/09 11:41:49;;;;;;;16.40;3.28;;;;;;;27.93;49.79;93196.78;5015972;28;20042;-81
2023/10/09 11:44:24;;;;;;;11.52;3.03;;;;;;;28.02;49.03;93191.84;5024128;28;20106;-80
2023/10/09 11:46:58;;;;;;;17.85;3.78;;;;;;;28.00;45.22;93194.13;4986804;28;20045;-79
2023/10/09 11:49:34;;;;;;;13.40;3.22;;;;;;;28.35;42.52;93181.94;5013838;28;20033;-82
2023/10/09 11:54:38;;;;;;;16.92;3.33;;;;;;;27.43;49.32;93185.00;5006008;28;20204;-80
2023/10/09 11:57:04;;;;;;;17.02;3.70;;;;;;;27.31;46.37;93186.06;5014911;28;20104;-80
2023/10/09 11:59:37;;;;;;;19.60;3.00;;;;;;;27.65;47.22;93175.13;5012132;28;20127;-79
2023/10/09 12:02:13;;;;;;;17.80;3.17;;;;;;;27.91;45.19;93172.19;5008741;28;20540;-81
2023/10/09 12:04:43;;;;;;;14.38;2.97;;;;;;;27.66;48.34;93169.38;5002552;28;20038;-80
2023/10/09 12:07:10;;;;;;;18.88;3.10;;;;;;;27.52;46.80;93162.00;5015919;28;20439;-80
2023/10/09 12:09:37;;;;;;;11.32;3.13;;;;;;;27.39;40.73;93163.47;5034072;28;20085;-81
2023/10/09 12:12:04;;;;;;;15.40;3.22;;;;;;;27.68;40.15;93163.63;5015069;28;20077;-80
2023/10/09 12:14:33;;;;;;;14.77;3.35;;;;;;;28.08;47.66;93149.19;5018059;28;20030;-80
2023/10/09 12:17:05;;;;;;;11.70;3.40;;;;;;;28.15;43.17;93151.13;5022911;28;20539;-80
2023/10/09 12:19:38;;;;;;;15.65;3.17;;;;;;;28.01;47.02;93149.16;5016842;28;20070;-80
2023/10/09 12:22:06;;;;;;;17.33;3.63;;;;;;;27.47;48.46;93140.88;5014749;28;20548;-80
2023/10/09 12:24:33;;;;;;;12.90;2.97;;;;;;;27.10;51.81;93146.38;5037342;28;20405;-80
2023/10/09 12:26:59;;;;;;;11.23;3.03;;;;;;;27.06;48.78;93148.25;5016133;28;20042;-80
2023/10/09 12:29:30;;;;;;;14.02;3.42;;;;;;;27.12;48.84;93142.16;5023276;28;20057;-80
2023/10/09 12:31:58;;;;;;;16.70;3.33;;;;;;;27.24;48.25;93134.97;5040257;28;20042;-81
2023/10/09 12:34:26;;;;;;;14.32;3.00;;;;;;;27.27;44.66;93140.38;5017360;28;20042;-80
2023/10/09 12:37:00;;;;;;;17.92;3.42;;;;;;;27.41;49.91;93134.31;5018274;28;20040;-81
2023/10/09 12:39:31;;;;;;;14.73;3.05;;;;;;;27.28;50.89;93128.47;5018511;28;20042;-81
2023/10/09 12:41:58;;;;;;;23.63;3.58;;;;;;;27.22;50.68;93131.88;5033572;28;20994;-81
2023/10/09 12:44:27;;;;;;;13.85;3.00;;;;;;;27.33;47.40;93117.34;5004925;28;20048;-81
2023/10/09 12:46:52;;;;;;;13.18;3.03;;;;;;;27.36;44.63;93122.00;5003227;28;20042;-81
2023/10/09 12:49:24;;;;;;;15.65;3.10;;;;;;;27.55;44.09;93133.59;5017694;28;20088;-81
2023/10/09 12:51:54;;;;;;;13.07;3.10;;;;;;;27.55;43.69;93128.22;5009416;28;20048;-80
2023/10/09 12:54:37;;;;;;;17.65;3.60;;;;;;;27.47;43.25;93116.66;5016310;28;20033;-80
2023/10/09 12:57:03;;;;;;;10.80;2.60;;;;;;;27.54;42.94;93119.38;5010084;28;20038;-82
2023/10/09 12:59:28;;;;;;;16.35;3.00;;;;;;;27.64;43.16;93114.44;5017395;28;20060;-81
2023/10/09 13:01:57;;;;;;;16.70;3.38;;;;;;;27.52;46.50;93108.25;5013565;28;20046;-80
2023/10/09 13:04:24;;;;;;;12.88;2.72;;;;;;;27.36;49.79;93110.47;5030723;28;20076;-80
2023/10/09 13:06:54;;;;;;;17.45;2.92;;;;;;;27.55;51.95;93107.47;5013446;28;20037;-80
2023/10/09 13:09:34;;;;;;;11.95;3.10;;;;;;;27.48;53.36;93102.06;5008146;28;20030;-80
2023/10/09 13:12:00;;;;;;;19.52;3.85;;;;;;;27.58;54.75;93095.97;5013116;28;20030;-80
2023/10/09 13:14:27;;;;;;;15.55;3.97;;;;;;;27.66;52.90;93087.94;5011418;28;20098;-81
2023/10/09 13:16:52;;;;;;;15.15;3.85;;;;;;;27.66;52.90;93093.31;5019307;28;20044;-80
2023/10/09 13:19:18;;;;;;;16.20;3.15;;;;;;;27.87;51.59;93092.63;5031276;28;20034;-80
2023/10/09 13:21:44;;;;;;;17.73;3.90;;;;;;;27.74;54.63;93086.78;5019781;28;20546;-81
2023/10/09 13:24:13;;;;;;;14.30;3.25;;;;;;;27.87;50.84;93096.09;5016741;28;20083;-81
2023/10/09 13:26:40;;;;;;;15.55;3.03;;;;;;;28.06;44.89;93092.28;5021743;28;20121;-79
2023/10/09 13:29:09;;;;;;;14.65;3.38;;;;;;;28.16;44.08;93088.06;5017485;28;20032;-79
2023/10/09 13:31:37;;;;;;;16.98;3.70;;;;;;;28.24;47.49;93079.63;5020481;28;20041;-80
2023/10/09 13:34:09;;;;;;;11.30;3.25;;;;;;;28.21;43.82;93082.31;5019278;28;20099;-80
2023/10/09 13:36:35;;;;;;;;;;;;;;;27.96;53.42;93077.66;5019111;28;20030;-81
2023/10/09 13:39:24;;;;;;;18.10;3.78;;;;;;;28.06;52.70;93078.09;5009102;28;19945;-80
2023/10/09 13:41:58;;;;;;;18.50;3.42;;;;;;;27.59;55.13;93078.69;5013599;28;20042;-79
2023/10/09 13:44:27;;;;;;;16.30;3.40;;;;;;;27.54;56.69;93068.31;5011827;28;20079;-80
2023/10/09 13:47:02;;;;;;;14.77;3.70;;;;;;;27.26;54.04;93068.19;5006983;28;20029;-80
2023/10/09 13:49:31;;;;;;;14.73;3.47;;;;;;;27.07;57.91;93072.66;5009522;28;20049;-79
2023/10/09 13:51:58;;;;;;;13.93;3.30;;;;;;;27.12;60.67;93068.84;5006143;28;20034;-80
2023/10/09 13:56:59;;;;;;;16.65;3.92;;;;;;;27.28;56.44;93072.03;5012772;28;20088;-78
2023/10/09 13:59:25;;;;;;;17.10;3.58;;;;;;;27.41;55.07;93062.47;5016981;28;20026;-80
2023/10/09 14:01:54;;;;;;;10.30;2.92;;;;;;;27.45;50.26;93059.03;5012244;28;20049;-82
2023/10/09 14:04:22;;;;;;;17.40;3.88;;;;;;;27.43;43.62;93059.44;5009367;28;20500;-80
2023/10/09 14:06:56;;;;;;;16.98;3.47;;;;;;;27.44;50.74;93055.56;5018344;28;20113;-80
2023/10/09 14:09:38;;;;;;;13.98;3.70;;;;;;;27.48;50.90;93053.69;5017450;28;20511;-81
2023/10/09 14:12:10;;;;;;;11.48;3.10;;;;;;;27.64;47.17;93056.03;5014636;28;20048;-80
2023/10/09 14:14:46;;;;;;;15.88;2.90;;;;;;;27.81;51.17;93057.25;5015550;28;20030;-80
2023/10/09 14:17:13;;;;;;;17.45;3.40;;;;;;;27.95;48.07;93051.91;5010937;28;20077;-80
2023/10/09 14:19:47;;;;;;;17.30;3.83;;;;;;;27.85;45.59;93049.97;5026192;28;20466;-80
2023/10/09 14:22:15;;;;;;;13.75;3.33;;;;;;;27.65;44.00;93057.59;5008910;28;20078;-80
2023/10/09 14:24:45;;;;;;;13.10;3.33;;;;;;;27.75;49.51;93056.06;5015094;28;20030;-80
2023/10/09 14:27:17;;;;;;;16.80;3.67;;;;;;;27.53;52.46;93045.25;5036328;28;20037;-80
2023/10/09 14:29:49;;;;;;;;;;;;;;;27.55;50.83;93047.56;5023078;28;20045;-80
2023/10/09 14:32:16;;;;;;;10.77;3.20;;;;;;;27.65;54.15;93046.84;5003984;28;19917;-80
2023/10/09 14:34:54;;;;;;;19.30;3.10;;;;;;;27.71;49.28;93042.59;5006850;28;20053;-80